createdAt,value
2019-03-27T00:00:24.699Z,100.0
2019-03-27T00:01:26.048Z,100.0
2019-03-27T00:02:27.393Z,100.0
2019-03-27T00:03:28.743Z,100.0
2019-03-27T00:04:30.100Z,100.0
2019-03-27T00:05:31.450Z,100.0
2019-03-27T00:06:32.799Z,100.0
2019-03-27T00:07:34.149Z,100.0
2019-03-27T00:08:35.558Z,100.0
2019-03-27T00:09:36.915Z,100.0
2019-03-27T00:10:38.295Z,100.0
2019-03-27T00:11:39.626Z,100.0
2019-03-27T00:12:40.981Z,100.0
2019-03-27T00:13:42.324Z,100.0
2019-03-27T00:14:43.720Z,100.0
2019-03-27T00:15:45.064Z,100.0
2019-03-27T00:16:46.414Z,100.0
2019-03-27T00:17:47.756Z,100.0
2019-03-27T00:18:49.120Z,100.0
2019-03-27T00:19:50.467Z,100.0
2019-03-27T00:20:51.820Z,100.0
2019-03-27T00:21:53.174Z,100.0
2019-03-27T00:22:54.521Z,100.0
2019-03-27T00:23:55.878Z,100.0
2019-03-27T00:24:57.230Z,100.0
2019-03-27T00:25:58.571Z,100.0
2019-03-27T00:26:59.920Z,100.0
2019-03-27T00:28:01.273Z,100.0
2019-03-27T00:29:02.619Z,100.0
2019-03-27T00:30:04.091Z,100.0
2019-03-27T00:31:05.430Z,100.0
2019-03-27T00:32:06.779Z,100.0
2019-03-27T00:33:08.129Z,100.0
2019-03-27T00:34:09.487Z,100.0
2019-03-27T00:35:10.819Z,100.0
2019-03-27T00:36:12.167Z,100.0
2019-03-27T00:37:13.524Z,100.0
2019-03-27T00:38:14.870Z,100.0
2019-03-27T00:39:16.215Z,100.0
2019-03-27T00:40:17.575Z,100.0
2019-03-27T00:41:18.915Z,100.0
2019-03-27T00:42:20.798Z,100.0
2019-03-27T00:43:22.161Z,100.0
2019-03-27T00:44:23.509Z,100.0
2019-03-27T00:45:26.878Z,100.0
2019-03-27T00:46:26.169Z,100.0
2019-03-27T00:47:27.519Z,100.0
2019-03-27T00:48:28.872Z,100.0
2019-03-27T00:49:30.235Z,100.0
2019-03-27T00:50:31.586Z,100.0
2019-03-27T00:51:32.929Z,100.0
2019-03-27T00:52:34.279Z,100.0
2019-03-27T00:53:35.625Z,100.0
2019-03-27T00:54:36.980Z,100.0
2019-03-27T00:55:38.330Z,100.0
2019-03-27T00:56:39.681Z,100.0
2019-03-27T00:57:41.032Z,100.0
2019-03-27T00:58:42.372Z,100.0
2019-03-27T00:59:43.725Z,100.0
2019-03-27T01:00:45.069Z,100.0
2019-03-27T01:01:46.417Z,100.0
2019-03-27T01:02:47.761Z,100.0
2019-03-27T01:03:49.111Z,100.0
2019-03-27T01:04:50.455Z,100.0
2019-03-27T01:05:51.807Z,100.0
2019-03-27T01:06:53.160Z,100.0
2019-03-27T01:07:54.500Z,100.0
2019-03-27T01:08:55.851Z,100.0
2019-03-27T01:09:57.194Z,100.0
2019-03-27T01:10:58.551Z,100.0
2019-03-27T01:11:59.900Z,100.0
2019-03-27T01:13:01.265Z,100.0
2019-03-27T01:14:02.616Z,100.0
2019-03-27T01:15:03.970Z,100.0
2019-03-27T01:16:05.315Z,100.0
2019-03-27T01:17:06.660Z,100.0
2019-03-27T01:18:08.007Z,100.0
2019-03-27T01:19:09.362Z,100.0
2019-03-27T01:20:10.712Z,100.0
2019-03-27T01:21:12.071Z,100.0
2019-03-27T01:22:13.418Z,100.0
2019-03-27T01:23:14.770Z,100.0
2019-03-27T01:24:16.122Z,100.0
2019-03-27T01:25:17.471Z,100.0
2019-03-27T01:26:18.817Z,100.0
2019-03-27T01:27:20.174Z,100.0
2019-03-27T01:28:21.519Z,100.0
2019-03-27T01:29:22.866Z,100.0
2019-03-27T01:30:24.216Z,100.0
2019-03-27T01:31:25.569Z,100.0
2019-03-27T01:32:26.917Z,100.0
2019-03-27T01:33:28.278Z,100.0
2019-03-27T01:34:29.627Z,100.0
2019-03-27T01:35:30.983Z,100.0
2019-03-27T01:36:32.327Z,100.0
2019-03-27T01:37:33.674Z,100.0
2019-03-27T01:38:35.026Z,100.0
2019-03-27T01:39:36.500Z,100.0
2019-03-27T01:40:37.847Z,100.0
2019-03-27T01:41:39.192Z,100.0
2019-03-27T01:42:40.540Z,100.0
2019-03-27T01:43:41.888Z,100.0
2019-03-27T01:44:43.233Z,100.0
2019-03-27T01:45:53.056Z,100.0
2019-03-27T01:46:45.892Z,100.0
2019-03-27T01:47:47.243Z,100.0
2019-03-27T01:48:48.597Z,100.0
2019-03-27T01:49:49.940Z,100.0
2019-03-27T01:50:51.288Z,100.0
2019-03-27T01:51:52.631Z,100.0
2019-03-27T01:52:53.991Z,100.0
2019-03-27T01:53:55.323Z,100.0
2019-03-27T01:54:56.674Z,100.0
2019-03-27T01:55:58.025Z,100.0
2019-03-27T01:56:59.372Z,100.0
2019-03-27T01:58:00.720Z,100.0
2019-03-27T01:59:02.068Z,100.0
2019-03-27T02:00:03.420Z,100.0
2019-03-27T02:01:04.772Z,100.0
2019-03-27T02:02:06.120Z,100.0
2019-03-27T02:03:07.472Z,100.0
2019-03-27T02:04:08.815Z,100.0
2019-03-27T02:05:10.276Z,100.0
2019-03-27T02:06:11.636Z,100.0
2019-03-27T02:07:12.980Z,100.0
2019-03-27T02:08:14.338Z,100.0
2019-03-27T02:09:15.681Z,100.0
2019-03-27T02:10:17.037Z,100.0
2019-03-27T02:11:18.382Z,100.0
2019-03-27T02:12:19.736Z,100.0
2019-03-27T02:13:21.082Z,100.0
2019-03-27T02:14:22.438Z,100.0
2019-03-27T02:15:23.783Z,100.0
2019-03-27T02:16:25.125Z,100.0
2019-03-27T02:17:26.591Z,100.0
2019-03-27T02:18:27.946Z,100.0
2019-03-27T02:19:29.291Z,100.0
2019-03-27T02:20:30.637Z,100.0
2019-03-27T02:21:31.987Z,100.0
2019-03-27T02:22:33.335Z,100.0
2019-03-27T02:23:34.747Z,100.0
2019-03-27T02:24:36.068Z,100.0
2019-03-27T02:25:37.418Z,100.0
2019-03-27T02:26:38.786Z,100.0
2019-03-27T02:27:40.110Z,100.0
2019-03-27T02:28:41.462Z,100.0
2019-03-27T02:29:42.801Z,100.0
2019-03-27T02:30:44.156Z,100.0
2019-03-27T02:31:45.508Z,100.0
2019-03-27T02:32:46.878Z,100.0
2019-03-27T02:33:48.229Z,100.0
2019-03-27T02:34:49.579Z,100.0
2019-03-27T02:35:50.927Z,100.0
2019-03-27T02:36:52.274Z,100.0
2019-03-27T02:37:53.624Z,100.0
2019-03-27T02:38:54.969Z,100.0
2019-03-27T02:39:56.328Z,100.0
2019-03-27T02:40:57.666Z,100.0
2019-03-27T02:41:59.009Z,100.0
2019-03-27T02:43:00.388Z,100.0
2019-03-27T02:44:01.736Z,100.0
2019-03-27T02:45:03.079Z,100.0
2019-03-27T02:46:04.446Z,100.0
2019-03-27T02:47:05.777Z,100.0
2019-03-27T02:48:07.139Z,100.0
2019-03-27T02:49:08.482Z,100.0
2019-03-27T02:50:09.837Z,100.0
2019-03-27T02:51:11.187Z,100.0
2019-03-27T02:52:12.539Z,100.0
2019-03-27T02:53:13.894Z,100.0
2019-03-27T02:54:15.243Z,100.0
2019-03-27T02:55:16.587Z,100.0
2019-03-27T02:56:17.939Z,100.0
2019-03-27T02:57:19.285Z,100.0
2019-03-27T02:58:20.627Z,100.0
2019-03-27T02:59:21.983Z,100.0
2019-03-27T03:00:23.407Z,100.0
2019-03-27T03:01:24.642Z,100.0
2019-03-27T03:02:25.988Z,100.0
2019-03-27T03:03:27.337Z,100.0
2019-03-27T03:04:28.688Z,100.0
2019-03-27T03:05:30.038Z,100.0
2019-03-27T03:06:31.384Z,100.0
2019-03-27T03:07:32.740Z,100.0
2019-03-27T03:08:34.082Z,100.0
2019-03-27T03:09:35.440Z,100.0
2019-03-27T03:10:36.780Z,100.0
2019-03-27T03:11:38.133Z,100.0
2019-03-27T03:12:39.490Z,100.0
2019-03-27T03:13:40.839Z,100.0
2019-03-27T03:14:42.193Z,100.0
2019-03-27T03:15:43.553Z,100.0
2019-03-27T03:16:44.899Z,100.0
2019-03-27T03:17:46.252Z,100.0
2019-03-27T03:18:47.609Z,100.0
2019-03-27T03:19:48.957Z,100.0
2019-03-27T03:20:50.317Z,100.0
2019-03-27T03:21:51.658Z,100.0
2019-03-27T03:22:53.007Z,100.0
2019-03-27T03:23:54.436Z,100.0
2019-03-27T03:24:55.671Z,100.0
2019-03-27T03:25:57.012Z,100.0
2019-03-27T03:26:58.362Z,100.0
2019-03-27T03:27:59.702Z,100.0
2019-03-27T03:29:01.060Z,100.0
2019-03-27T03:30:02.406Z,100.0
2019-03-27T03:31:03.756Z,100.0
2019-03-27T03:32:05.101Z,100.0
2019-03-27T03:33:06.451Z,100.0
2019-03-27T03:34:07.808Z,100.0
2019-03-27T03:35:09.145Z,100.0
2019-03-27T03:36:10.499Z,100.0
2019-03-27T03:37:11.850Z,100.0
2019-03-27T03:38:13.205Z,100.0
2019-03-27T03:39:14.543Z,100.0
2019-03-27T03:40:15.899Z,100.0
2019-03-27T03:41:17.233Z,100.0
2019-03-27T03:42:18.609Z,100.0
2019-03-27T03:43:19.966Z,100.0
2019-03-27T03:44:21.319Z,100.0
2019-03-27T03:45:22.664Z,100.0
2019-03-27T03:46:24.011Z,100.0
2019-03-27T03:47:25.371Z,100.0
2019-03-27T03:48:26.723Z,100.0
2019-03-27T03:49:28.073Z,100.0
2019-03-27T03:50:29.429Z,100.0
2019-03-27T03:51:30.774Z,100.0
2019-03-27T03:52:32.125Z,100.0
2019-03-27T03:53:33.493Z,100.0
2019-03-27T03:54:34.851Z,100.0
2019-03-27T03:55:36.208Z,100.0
2019-03-27T03:56:37.553Z,100.0
2019-03-27T03:57:38.903Z,100.0
2019-03-27T03:58:40.264Z,100.0
2019-03-27T03:59:41.659Z,100.0
2019-03-27T04:00:42.961Z,100.0
2019-03-27T04:01:44.315Z,100.0
2019-03-27T04:02:45.658Z,100.0
2019-03-27T04:03:47.010Z,100.0
2019-03-27T04:04:48.368Z,100.0
2019-03-27T04:05:49.704Z,100.0
2019-03-27T04:06:51.061Z,100.0
2019-03-27T04:07:52.415Z,100.0
2019-03-27T04:08:53.759Z,100.0
2019-03-27T04:09:55.115Z,100.0
2019-03-27T04:10:56.473Z,100.0
2019-03-27T04:11:57.818Z,100.0
2019-03-27T04:12:59.164Z,100.0
2019-03-27T04:14:00.517Z,100.0
2019-03-27T04:15:01.858Z,100.0
2019-03-27T04:16:03.173Z,100.0
2019-03-27T04:17:16.870Z,100.0
2019-03-27T04:18:05.831Z,100.0
2019-03-27T04:19:07.193Z,100.0
2019-03-27T04:20:08.539Z,100.0
2019-03-27T04:21:09.891Z,100.0
2019-03-27T04:22:11.249Z,100.0
2019-03-27T04:23:12.605Z,100.0
2019-03-27T04:24:13.943Z,100.0
2019-03-27T04:25:15.292Z,100.0
2019-03-27T04:26:16.657Z,100.0
2019-03-27T04:27:17.992Z,100.0
2019-03-27T04:28:19.349Z,100.0
2019-03-27T04:29:20.690Z,100.0
2019-03-27T04:30:22.040Z,100.0
2019-03-27T04:31:23.390Z,100.0
2019-03-27T04:32:24.735Z,100.0
2019-03-27T04:33:26.044Z,100.0
2019-03-27T04:34:27.395Z,100.0
2019-03-27T04:35:28.741Z,100.0
2019-03-27T04:36:30.094Z,100.0
2019-03-27T04:37:31.434Z,100.0
2019-03-27T04:38:32.794Z,100.0
2019-03-27T04:39:34.141Z,100.0
2019-03-27T04:40:35.493Z,100.0
2019-03-27T04:41:36.869Z,100.0
2019-03-27T04:42:38.186Z,100.0
2019-03-27T04:43:39.536Z,100.0
2019-03-27T04:44:40.876Z,100.0
2019-03-27T04:45:42.233Z,100.0
2019-03-27T04:46:43.583Z,100.0
2019-03-27T04:47:44.935Z,100.0
2019-03-27T04:48:46.291Z,100.0
2019-03-27T04:49:47.639Z,100.0
2019-03-27T04:50:48.950Z,100.0
2019-03-27T04:51:50.300Z,100.0
2019-03-27T04:52:51.665Z,100.0
2019-03-27T04:53:53.006Z,100.0
2019-03-27T04:54:54.362Z,100.0
2019-03-27T04:55:55.720Z,100.0
2019-03-27T04:56:57.076Z,100.0
2019-03-27T04:57:58.425Z,100.0
2019-03-27T04:58:59.776Z,100.0
2019-03-27T05:00:01.135Z,100.0
2019-03-27T05:01:02.474Z,100.0
2019-03-27T05:02:06.438Z,100.0
2019-03-27T05:03:05.149Z,100.0
2019-03-27T05:04:06.506Z,100.0
2019-03-27T05:05:07.864Z,100.0
2019-03-27T05:06:09.221Z,100.0
2019-03-27T05:07:13.527Z,100.0
2019-03-27T05:08:11.886Z,100.0
2019-03-27T05:09:13.249Z,100.0
2019-03-27T05:10:14.605Z,100.0
2019-03-27T05:11:15.959Z,100.0
2019-03-27T05:12:17.360Z,100.0
2019-03-27T05:13:18.714Z,100.0
2019-03-27T05:14:20.059Z,100.0
2019-03-27T05:15:21.410Z,100.0
2019-03-27T05:16:22.770Z,100.0
2019-03-27T05:17:24.116Z,100.0
2019-03-27T05:18:25.472Z,100.0
2019-03-27T05:19:26.831Z,100.0
2019-03-27T05:20:28.859Z,100.0
2019-03-27T05:21:29.494Z,100.0
2019-03-27T05:22:30.847Z,100.0
2019-03-27T05:23:32.296Z,100.0
2019-03-27T05:24:33.639Z,100.0
2019-03-27T05:25:34.986Z,100.0
2019-03-27T05:26:36.344Z,100.0
2019-03-27T05:27:37.697Z,100.0
2019-03-27T05:28:39.042Z,100.0
2019-03-27T05:29:40.394Z,100.0
2019-03-27T05:30:41.756Z,100.0
2019-03-27T05:31:43.110Z,100.0
2019-03-27T05:32:44.455Z,100.0
2019-03-27T05:33:45.810Z,100.0
2019-03-27T05:34:47.164Z,100.0
2019-03-27T05:35:48.516Z,100.0
2019-03-27T05:36:49.874Z,100.0
2019-03-27T05:37:51.220Z,100.0
2019-03-27T05:38:52.587Z,100.0
2019-03-27T05:39:53.945Z,100.0
2019-03-27T05:40:55.301Z,100.0
2019-03-27T05:41:56.662Z,100.0
2019-03-27T05:43:00.876Z,100.0
2019-03-27T05:43:59.350Z,100.0
2019-03-27T05:45:00.706Z,100.0
2019-03-27T05:46:02.059Z,100.0
2019-03-27T05:47:03.423Z,100.0
2019-03-27T05:48:04.781Z,100.0
2019-03-27T05:49:06.127Z,100.0
2019-03-27T05:50:07.497Z,100.0
2019-03-27T05:51:08.852Z,100.0
2019-03-27T05:52:10.212Z,100.0
2019-03-27T05:53:11.571Z,100.0
2019-03-27T05:54:12.926Z,100.0
2019-03-27T05:55:14.290Z,100.0
2019-03-27T05:56:15.650Z,100.0
2019-03-27T05:57:17.002Z,100.0
2019-03-27T05:58:18.365Z,100.0
2019-03-27T05:59:19.720Z,100.0
2019-03-27T06:00:21.078Z,100.0
2019-03-27T06:01:22.442Z,100.0
2019-03-27T06:02:23.807Z,100.0
2019-03-27T06:03:25.157Z,100.0
2019-03-27T06:04:26.512Z,100.0
2019-03-27T06:05:27.865Z,100.0
2019-03-27T06:06:29.226Z,100.0
2019-03-27T06:07:30.597Z,100.0
2019-03-27T06:08:31.937Z,100.0
2019-03-27T06:09:33.294Z,100.0
2019-03-27T06:10:34.652Z,100.0
2019-03-27T06:11:36.002Z,100.0
2019-03-27T06:12:37.360Z,100.0
2019-03-27T06:13:38.720Z,100.0
2019-03-27T06:14:40.074Z,100.0
2019-03-27T06:15:41.427Z,100.0
2019-03-27T06:16:42.786Z,100.0
2019-03-27T06:17:44.167Z,100.0
2019-03-27T06:18:45.532Z,100.0
2019-03-27T06:19:46.884Z,100.0
2019-03-27T06:20:48.242Z,100.0
2019-03-27T06:21:49.592Z,100.0
2019-03-27T06:22:50.952Z,100.0
2019-03-27T06:23:52.301Z,100.0
2019-03-27T06:24:53.682Z,100.0
2019-03-27T06:25:55.027Z,100.0
2019-03-27T06:26:56.386Z,100.0
2019-03-27T06:27:57.761Z,100.0
2019-03-27T06:28:59.120Z,100.0
2019-03-27T06:30:00.477Z,100.0
2019-03-27T06:31:01.822Z,100.0
2019-03-27T06:32:03.182Z,100.0
2019-03-27T06:33:04.536Z,100.0
2019-03-27T06:34:05.917Z,100.0
2019-03-27T06:35:07.248Z,100.0
2019-03-27T06:36:08.618Z,100.0
2019-03-27T06:37:09.971Z,100.0
2019-03-27T06:38:11.324Z,100.0
2019-03-27T06:39:12.678Z,100.0
2019-03-27T06:40:14.036Z,100.0
2019-03-27T06:41:15.393Z,100.0
2019-03-27T06:42:16.817Z,100.0
2019-03-27T06:43:18.166Z,100.0
2019-03-27T06:44:19.527Z,100.0
2019-03-27T06:45:20.881Z,100.0
2019-03-27T06:46:22.250Z,100.0
2019-03-27T06:47:23.607Z,100.0
2019-03-27T06:48:26.385Z,100.0
2019-03-27T06:49:26.292Z,100.0
2019-03-27T06:50:27.648Z,100.0
2019-03-27T06:51:39.524Z,100.0
2019-03-27T06:52:30.347Z,100.0
2019-03-27T06:53:31.698Z,100.0
2019-03-27T06:54:33.066Z,100.0
2019-03-27T06:55:34.446Z,100.0
2019-03-27T06:56:35.785Z,100.0
2019-03-27T06:57:37.141Z,100.0
2019-03-27T06:58:38.503Z,100.0
2019-03-27T06:59:39.858Z,100.0
2019-03-27T07:00:41.225Z,100.0
2019-03-27T07:01:42.605Z,100.0
2019-03-27T07:02:43.941Z,100.0
2019-03-27T07:03:45.311Z,100.0
2019-03-27T07:04:46.664Z,100.0
2019-03-27T07:05:48.032Z,100.0
2019-03-27T07:06:49.418Z,100.0
2019-03-27T07:07:50.782Z,100.0
2019-03-27T07:08:52.134Z,100.0
2019-03-27T07:09:53.500Z,100.0
2019-03-27T07:10:54.857Z,100.0
2019-03-27T07:11:56.207Z,100.0
2019-03-27T07:12:57.563Z,100.0
2019-03-27T07:13:58.924Z,100.0
2019-03-27T07:15:00.287Z,100.0
2019-03-27T07:16:01.668Z,100.0
2019-03-27T07:17:03.046Z,100.0
2019-03-27T07:18:04.385Z,100.0
2019-03-27T07:19:05.768Z,100.0
2019-03-27T07:20:07.143Z,100.0
2019-03-27T07:21:08.497Z,100.0
2019-03-27T07:22:09.857Z,100.0
2019-03-27T07:23:11.231Z,100.0
2019-03-27T07:24:12.582Z,100.0
2019-03-27T07:25:13.943Z,100.0
2019-03-27T07:26:15.304Z,100.0
2019-03-27T07:27:16.670Z,100.0
2019-03-27T07:28:18.027Z,100.0
2019-03-27T07:29:19.410Z,100.0
2019-03-27T07:30:20.774Z,100.0
2019-03-27T07:31:22.134Z,100.0
2019-03-27T07:32:23.487Z,100.0
2019-03-27T07:33:24.858Z,100.0
2019-03-27T07:34:26.218Z,100.0
2019-03-27T07:35:27.573Z,100.0
2019-03-27T07:36:28.953Z,100.0
2019-03-27T07:37:30.325Z,100.0
2019-03-27T07:38:31.693Z,100.0
2019-03-27T07:39:33.058Z,100.0
2019-03-27T07:40:34.455Z,100.0
2019-03-27T07:41:35.812Z,100.0
2019-03-27T07:42:37.184Z,100.0
2019-03-27T07:43:38.543Z,100.0
2019-03-27T07:44:39.898Z,100.0
2019-03-27T07:45:41.276Z,100.0
2019-03-27T07:46:42.633Z,100.0
2019-03-27T07:47:44.003Z,100.0
2019-03-27T07:48:53.744Z,100.0
2019-03-27T07:49:46.709Z,100.0
2019-03-27T07:50:48.081Z,100.0
2019-03-27T07:51:49.435Z,100.0
2019-03-27T07:52:50.812Z,100.0
2019-03-27T07:53:52.195Z,100.0
2019-03-27T07:54:53.542Z,100.0
2019-03-27T07:55:54.913Z,100.0
2019-03-27T07:56:56.289Z,100.0
2019-03-27T07:57:57.664Z,100.0
2019-03-27T07:58:59.864Z,100.0
2019-03-27T08:00:00.402Z,100.0
2019-03-27T08:01:01.749Z,100.0
2019-03-27T08:02:03.097Z,100.0
2019-03-27T08:03:04.475Z,100.0
2019-03-27T08:04:05.861Z,100.0
2019-03-27T08:05:07.221Z,100.0
2019-03-27T08:06:08.594Z,100.0
2019-03-27T08:07:09.969Z,100.0
2019-03-27T08:08:11.337Z,100.0
2019-03-27T08:09:12.718Z,100.0
2019-03-27T08:10:14.083Z,100.0
2019-03-27T08:11:15.454Z,100.0
2019-03-27T08:12:16.876Z,100.0
2019-03-27T08:13:18.254Z,100.0
2019-03-27T08:14:19.638Z,100.0
2019-03-27T08:15:20.985Z,100.0
2019-03-27T08:16:22.352Z,100.0
2019-03-27T08:17:23.733Z,100.0
2019-03-27T08:18:25.105Z,100.0
2019-03-27T08:19:26.470Z,100.0
2019-03-27T08:20:27.839Z,100.0
2019-03-27T08:21:31.121Z,100.0
2019-03-27T08:22:30.544Z,100.0
2019-03-27T08:23:31.924Z,100.0
2019-03-27T08:24:33.288Z,100.0
2019-03-27T08:25:34.658Z,100.0
2019-03-27T08:26:36.033Z,100.0
2019-03-27T08:27:37.434Z,100.0
2019-03-27T08:28:38.800Z,100.0
2019-03-27T08:29:40.177Z,100.0
2019-03-27T08:30:41.558Z,100.0
2019-03-27T08:31:42.909Z,100.0
2019-03-27T08:32:44.287Z,100.0
2019-03-27T08:33:45.614Z,100.0
2019-03-27T08:34:46.998Z,100.0
2019-03-27T08:35:48.375Z,100.0
2019-03-27T08:36:49.752Z,100.0
2019-03-27T08:37:51.115Z,99.5
2019-03-27T08:38:52.489Z,99.4
2019-03-27T08:39:53.854Z,98.9
2019-03-27T08:40:55.235Z,98.8
2019-03-27T08:41:56.608Z,97.8
2019-03-27T08:42:57.979Z,96.8
2019-03-27T08:43:59.358Z,96.4
2019-03-27T08:45:00.725Z,96.1
2019-03-27T08:46:02.104Z,95.2
2019-03-27T08:47:03.468Z,95.6
2019-03-27T08:48:04.841Z,95.2
2019-03-27T08:49:06.219Z,94.3
2019-03-27T08:50:07.593Z,93.9
2019-03-27T08:51:08.959Z,93.2
2019-03-27T08:52:10.331Z,93.2
2019-03-27T08:53:11.705Z,93.0
2019-03-27T08:54:13.080Z,92.9
2019-03-27T08:55:14.469Z,93.2
2019-03-27T08:56:15.838Z,92.3
2019-03-27T08:57:17.210Z,92.1
2019-03-27T08:58:18.590Z,92.1
2019-03-27T08:59:19.957Z,90.9
2019-03-27T09:00:21.519Z,90.8
2019-03-27T09:01:22.678Z,90.5
2019-03-27T09:02:24.062Z,90.1
2019-03-27T09:03:25.440Z,89.3
2019-03-27T09:04:26.805Z,89.6
2019-03-27T09:05:28.188Z,89.3
2019-03-27T09:06:33.826Z,89.3
2019-03-27T09:07:30.895Z,88.6
2019-03-27T09:08:32.260Z,87.9
2019-03-27T09:09:33.641Z,88.0
2019-03-27T09:10:35.010Z,88.5
2019-03-27T09:11:36.389Z,86.9
2019-03-27T09:12:37.767Z,87.3
2019-03-27T09:13:39.129Z,87.2
2019-03-27T09:14:40.502Z,87.6
2019-03-27T09:15:41.874Z,87.4
2019-03-27T09:16:43.269Z,86.5
2019-03-27T09:17:44.779Z,86.3
2019-03-27T09:18:46.148Z,85.9
2019-03-27T09:19:47.526Z,85.3
2019-03-27T09:20:48.905Z,85.2
2019-03-27T09:21:50.275Z,85.5
2019-03-27T09:22:51.650Z,85.4
2019-03-27T09:23:53.029Z,85.5
2019-03-27T09:24:54.399Z,84.8
2019-03-27T09:25:55.770Z,84.8
2019-03-27T09:26:57.146Z,84.9
2019-03-27T09:27:58.515Z,84.8
2019-03-27T09:28:59.910Z,84.5
2019-03-27T09:30:01.277Z,84.8
2019-03-27T09:31:02.641Z,84.5
2019-03-27T09:32:04.046Z,84.5
2019-03-27T09:33:05.409Z,85.3
2019-03-27T09:34:06.808Z,85.6
2019-03-27T09:35:08.137Z,85.8
2019-03-27T09:36:09.700Z,85.6
2019-03-27T09:37:10.866Z,86.3
2019-03-27T09:38:12.242Z,86.3
2019-03-27T09:39:13.599Z,86.3
2019-03-27T09:40:14.973Z,86.9
2019-03-27T09:41:16.339Z,86.8
2019-03-27T09:42:17.710Z,87.3
2019-03-27T09:43:19.086Z,87.3
2019-03-27T09:44:20.470Z,87.9
2019-03-27T09:45:21.842Z,88.0
2019-03-27T09:46:23.215Z,87.7
2019-03-27T09:47:24.583Z,88.2
2019-03-27T09:48:25.980Z,88.4
2019-03-27T09:49:27.303Z,88.2
2019-03-27T09:50:28.679Z,88.0
2019-03-27T09:51:30.049Z,88.2
2019-03-27T09:52:31.415Z,88.5
2019-03-27T09:53:32.788Z,88.8
2019-03-27T09:54:34.144Z,89.3
2019-03-27T09:55:35.510Z,89.4
2019-03-27T09:56:36.887Z,89.3
2019-03-27T09:57:38.241Z,89.5
2019-03-27T09:58:39.609Z,89.7
2019-03-27T09:59:40.971Z,89.6
2019-03-27T10:00:42.333Z,89.9
2019-03-27T10:01:43.697Z,90.1
2019-03-27T10:02:45.082Z,90.6
2019-03-27T10:03:46.440Z,90.0
2019-03-27T10:04:47.810Z,90.7
2019-03-27T10:05:49.170Z,90.4
2019-03-27T10:06:50.536Z,90.7
2019-03-27T10:07:51.902Z,90.8
2019-03-27T10:08:53.262Z,90.9
2019-03-27T10:09:54.645Z,90.8
2019-03-27T10:10:56.002Z,91.1
2019-03-27T10:11:57.370Z,91.4
2019-03-27T10:12:58.734Z,91.7
2019-03-27T10:14:00.104Z,91.0
2019-03-27T10:15:01.466Z,91.7
2019-03-27T10:16:02.838Z,91.3
2019-03-27T10:17:04.200Z,91.7
2019-03-27T10:18:05.578Z,91.6
2019-03-27T10:19:06.947Z,91.6
2019-03-27T10:20:08.306Z,91.8
2019-03-27T10:21:09.677Z,91.7
2019-03-27T10:22:11.043Z,91.8
2019-03-27T10:23:12.401Z,91.4
2019-03-27T10:24:13.767Z,91.6
2019-03-27T10:25:15.141Z,91.2
2019-03-27T10:26:16.501Z,91.2
2019-03-27T10:27:17.866Z,91.4
2019-03-27T10:28:19.302Z,91.2
2019-03-27T10:29:20.563Z,91.4
2019-03-27T10:30:21.932Z,90.9
2019-03-27T10:31:23.299Z,91.1
2019-03-27T10:32:24.656Z,91.0
2019-03-27T10:33:26.019Z,90.1
2019-03-27T10:34:27.400Z,90.7
2019-03-27T10:35:28.762Z,90.5
2019-03-27T10:36:30.121Z,90.4
2019-03-27T10:37:31.486Z,90.4
2019-03-27T10:38:32.850Z,89.9
2019-03-27T10:39:34.210Z,90.0
2019-03-27T10:40:35.571Z,89.9
2019-03-27T10:41:36.933Z,89.5
2019-03-27T10:42:38.302Z,89.9
2019-03-27T10:43:39.668Z,89.6
2019-03-27T10:44:41.036Z,89.6
2019-03-27T10:45:42.401Z,89.2
2019-03-27T10:46:43.765Z,89.3
2019-03-27T10:47:45.130Z,89.3
2019-03-27T10:48:52.355Z,89.5
2019-03-27T10:49:47.818Z,89.4
2019-03-27T10:50:49.193Z,88.8
2019-03-27T10:51:50.560Z,88.7
2019-03-27T10:52:51.928Z,88.5
2019-03-27T10:53:53.293Z,87.5
2019-03-27T10:54:54.620Z,88.1
2019-03-27T10:55:55.980Z,88.0
2019-03-27T10:56:57.343Z,87.8
2019-03-27T10:57:58.732Z,87.2
2019-03-27T10:59:00.102Z,87.0
2019-03-27T11:00:01.457Z,86.9
2019-03-27T11:01:02.821Z,86.6
2019-03-27T11:02:04.195Z,86.4
2019-03-27T11:03:05.564Z,85.9
2019-03-27T11:04:07.037Z,86.3
2019-03-27T11:05:08.393Z,86.1
2019-03-27T11:06:09.767Z,85.7
2019-03-27T11:07:11.141Z,85.3
2019-03-27T11:08:12.499Z,85.5
2019-03-27T11:09:13.864Z,85.3
2019-03-27T11:10:15.232Z,84.6
2019-03-27T11:11:16.598Z,85.0
2019-03-27T11:12:18.052Z,84.2
2019-03-27T11:13:19.302Z,84.8
2019-03-27T11:14:20.675Z,84.3
2019-03-27T11:15:22.041Z,84.3
2019-03-27T11:16:23.402Z,83.9
2019-03-27T11:17:24.766Z,84.1
2019-03-27T11:18:26.135Z,83.3
2019-03-27T11:19:27.502Z,83.2
2019-03-27T11:20:31.299Z,83.2
2019-03-27T11:21:30.252Z,83.4
2019-03-27T11:22:31.614Z,83.0
2019-03-27T11:23:32.983Z,83.0
2019-03-27T11:24:34.356Z,82.5
2019-03-27T11:25:35.737Z,82.8
2019-03-27T11:26:37.111Z,82.5
2019-03-27T11:27:38.478Z,82.2
2019-03-27T11:28:39.839Z,82.4
2019-03-27T11:29:41.216Z,82.4
2019-03-27T11:30:42.589Z,82.1
2019-03-27T11:31:43.956Z,82.1
2019-03-27T11:32:45.323Z,81.9
2019-03-27T11:33:46.712Z,82.1
2019-03-27T11:34:48.087Z,81.6
2019-03-27T11:35:51.613Z,81.7
2019-03-27T11:36:50.790Z,81.4
2019-03-27T11:37:52.154Z,81.3
2019-03-27T11:38:53.521Z,81.2
2019-03-27T11:39:54.884Z,81.4
2019-03-27T11:40:56.258Z,81.3
2019-03-27T11:42:00.525Z,81.1
2019-03-27T11:42:58.957Z,80.9
2019-03-27T11:44:00.332Z,80.6
2019-03-27T11:45:01.699Z,80.7
2019-03-27T11:46:03.119Z,80.7
2019-03-27T11:47:04.438Z,80.6
2019-03-27T11:48:08.065Z,80.4
2019-03-27T11:49:07.134Z,80.4
2019-03-27T11:50:08.529Z,80.4
2019-03-27T11:51:09.890Z,80.3
2019-03-27T11:52:11.262Z,80.7
2019-03-27T11:53:12.631Z,80.6
2019-03-27T11:54:13.984Z,80.6
2019-03-27T11:55:15.358Z,80.1
2019-03-27T11:56:16.727Z,79.9
2019-03-27T11:57:18.092Z,79.8
2019-03-27T11:58:19.462Z,80.1
2019-03-27T11:59:20.833Z,80.2
2019-03-27T12:00:22.207Z,80.1
2019-03-27T12:01:23.576Z,80.0
2019-03-27T12:02:24.948Z,80.1
2019-03-27T12:03:26.312Z,79.4
2019-03-27T12:04:27.677Z,79.7
2019-03-27T12:05:29.069Z,79.9
2019-03-27T12:06:30.439Z,79.7
2019-03-27T12:07:31.799Z,79.6
2019-03-27T12:08:33.183Z,79.7
2019-03-27T12:09:34.539Z,79.4
2019-03-27T12:10:35.954Z,79.2
2019-03-27T12:11:37.324Z,79.0
2019-03-27T12:12:38.712Z,79.3
2019-03-27T12:13:40.077Z,78.6
2019-03-27T12:14:41.436Z,78.8
2019-03-27T12:15:42.831Z,78.7
2019-03-27T12:16:44.202Z,78.3
2019-03-27T12:17:45.572Z,78.2
2019-03-27T12:18:46.927Z,78.4
2019-03-27T12:19:48.302Z,78.3
2019-03-27T12:20:58.788Z,78.0
2019-03-27T12:21:50.995Z,77.6
2019-03-27T12:22:57.570Z,77.7
2019-03-27T12:23:53.710Z,77.8
2019-03-27T12:24:55.055Z,77.8
2019-03-27T12:25:56.465Z,77.6
2019-03-27T12:26:57.779Z,77.1
2019-03-27T12:27:59.148Z,77.6
2019-03-27T12:29:00.514Z,77.4
2019-03-27T12:30:01.884Z,77.1
2019-03-27T12:31:03.244Z,77.2
2019-03-27T12:32:04.622Z,76.9
2019-03-27T12:33:06.020Z,76.3
2019-03-27T12:34:07.362Z,76.4
2019-03-27T12:35:08.730Z,76.8
2019-03-27T12:36:10.108Z,76.6
2019-03-27T12:37:11.474Z,76.5
2019-03-27T12:38:12.819Z,76.4
2019-03-27T12:39:14.201Z,76.5
2019-03-27T12:40:15.566Z,76.1
2019-03-27T12:41:16.929Z,75.9
2019-03-27T12:42:18.285Z,76.0
2019-03-27T12:43:19.649Z,76.1
2019-03-27T12:44:21.052Z,75.7
2019-03-27T12:45:22.413Z,75.3
2019-03-27T12:46:23.770Z,75.6
2019-03-27T12:47:25.154Z,76.3
2019-03-27T12:48:26.513Z,76.2
2019-03-27T12:49:27.878Z,75.4
2019-03-27T12:50:29.259Z,75.4
2019-03-27T12:51:30.624Z,75.7
2019-03-27T12:52:31.988Z,75.4
2019-03-27T12:53:33.355Z,75.0
2019-03-27T12:54:34.732Z,74.7
2019-03-27T12:55:36.084Z,74.6
2019-03-27T12:56:37.446Z,74.6
2019-03-27T12:57:38.818Z,74.4
2019-03-27T12:58:40.190Z,74.2
2019-03-27T12:59:41.546Z,73.6
2019-03-27T13:00:42.921Z,73.7
2019-03-27T13:01:44.273Z,72.7
2019-03-27T13:02:45.638Z,73.0
2019-03-27T13:03:47.007Z,72.4
2019-03-27T13:04:48.380Z,72.1
2019-03-27T13:05:49.744Z,72.3
2019-03-27T13:06:51.101Z,72.0
2019-03-27T13:07:52.466Z,71.4
2019-03-27T13:08:53.828Z,71.4
2019-03-27T13:09:55.206Z,70.6
2019-03-27T13:10:56.582Z,70.9
2019-03-27T13:11:57.958Z,70.3
2019-03-27T13:12:59.323Z,69.9
2019-03-27T13:14:00.693Z,69.9
2019-03-27T13:15:02.056Z,70.0
2019-03-27T13:16:03.420Z,69.8
2019-03-27T13:17:04.779Z,69.7
2019-03-27T13:18:06.151Z,69.6
2019-03-27T13:19:07.517Z,69.8